createdAt,value
2018-08-17T00:04:24.454Z,8.23
2018-08-17T00:09:27.905Z,7.53
2018-08-17T00:14:30.083Z,7.23
2018-08-17T00:19:32.234Z,7.37
2018-08-17T00:24:34.381Z,8.00
2018-08-17T00:29:36.984Z,7.20
2018-08-17T00:34:40.757Z,7.00
2018-08-17T00:39:42.925Z,7.57
2018-08-17T00:44:45.098Z,7.73
2018-08-17T00:49:47.262Z,7.50
2018-08-17T00:54:50.381Z,7.20
2018-08-17T00:59:52.661Z,7.17
2018-08-17T01:04:54.812Z,7.37
2018-08-17T01:09:57.158Z,7.50
2018-08-17T01:15:00.166Z,8.40
2018-08-17T01:20:04.177Z,7.80
2018-08-17T01:25:08.520Z,8.40
2018-08-17T01:30:10.784Z,8.13
2018-08-17T01:35:12.939Z,8.07
2018-08-17T01:40:15.736Z,8.83
2018-08-17T01:45:18.186Z,8.30
2018-08-17T01:50:20.366Z,8.60
2018-08-17T01:55:24.154Z,8.67
2018-08-17T02:00:28.497Z,8.03
2018-08-17T02:05:33.497Z,8.40
2018-08-17T02:10:35.669Z,7.70
2018-08-17T02:15:37.845Z,8.60
2018-08-17T02:20:43.517Z,8.40
2018-08-17T02:25:45.727Z,8.90
2018-08-17T02:30:51.091Z,8.97
2018-08-17T02:35:53.234Z,8.70
2018-08-17T02:40:55.417Z,8.90
2018-08-17T02:46:00.984Z,8.67
2018-08-17T02:51:03.490Z,8.37
2018-08-17T02:56:05.810Z,9.07
2018-08-17T03:01:07.947Z,8.83
2018-08-17T03:06:10.085Z,9.23
2018-08-17T03:11:15.765Z,9.20
2018-08-17T03:16:17.916Z,9.50
2018-08-17T03:21:22.129Z,9.53
2018-08-17T03:26:25.466Z,10.70
2018-08-17T03:31:27.610Z,11.10
2018-08-17T03:36:33.508Z,10.60
2018-08-17T03:41:35.697Z,10.60
2018-08-17T03:46:41.457Z,10.13
2018-08-17T03:51:46.550Z,10.90
2018-08-17T03:56:49.024Z,10.70
2018-08-17T04:01:51.165Z,10.50
2018-08-17T04:06:55.617Z,10.33
2018-08-17T04:11:59.222Z,10.70
2018-08-17T04:17:01.559Z,10.60
2018-08-17T04:22:03.720Z,10.27
2018-08-17T04:27:05.894Z,9.73
2018-08-17T04:32:09.151Z,10.90
2018-08-17T04:37:13.767Z,10.70
2018-08-17T04:42:20.611Z,10.43
2018-08-17T04:47:22.758Z,10.60
2018-08-17T04:52:26.193Z,8.90
2018-08-17T04:57:29.062Z,10.27
2018-08-17T05:02:31.492Z,10.30
2018-08-17T05:07:33.631Z,9.43
2018-08-17T05:12:35.821Z,10.50
2018-08-17T05:17:38.673Z,10.07
2018-08-17T05:22:41.178Z,10.87
2018-08-17T05:27:43.430Z,10.50
2018-08-17T05:32:45.580Z,9.90
2018-08-17T05:37:49.404Z,10.73
2018-08-17T05:42:51.727Z,11.00
2018-08-17T05:47:54.434Z,11.93
2018-08-17T05:52:56.918Z,11.57
2018-08-17T05:57:59.074Z,11.13
2018-08-17T06:03:01.265Z,12.90
2018-08-17T06:08:04.125Z,13.13
2018-08-17T06:13:06.967Z,12.27
2018-08-17T06:18:10.285Z,12.33
2018-08-17T06:23:14.445Z,11.60
2018-08-17T06:28:18.214Z,12.30
2018-08-17T06:33:20.426Z,10.93
2018-08-17T06:38:22.577Z,11.50
2018-08-17T06:43:24.807Z,11.00
2018-08-17T06:48:26.981Z,11.67
2018-08-17T06:53:30.164Z,10.93
2018-08-17T06:58:34.088Z,11.90
2018-08-17T07:03:36.397Z,11.40
2018-08-17T07:08:38.548Z,12.93
2018-08-17T07:13:40.706Z,11.77
2018-08-17T07:18:42.838Z,11.17
2018-08-17T07:23:46.338Z,11.47
2018-08-17T07:28:48.493Z,11.73
2018-08-17T07:33:50.626Z,11.50
2018-08-17T07:38:52.793Z,12.17
2018-08-17T07:43:54.980Z,11.50
2018-08-17T07:48:57.282Z,11.13
2018-08-17T07:53:59.549Z,10.40
2018-08-17T07:59:02.024Z,10.30
2018-08-17T08:04:04.205Z,8.87
2018-08-17T08:09:08.894Z,8.23
2018-08-17T08:14:11.401Z,8.30
2018-08-17T08:19:14.492Z,8.67
2018-08-17T08:24:17.374Z,7.97
2018-08-17T08:29:19.685Z,7.87
2018-08-17T08:34:21.974Z,7.47
2018-08-17T08:39:24.148Z,6.50
2018-08-17T08:44:26.306Z,6.90
2018-08-17T08:49:28.559Z,6.90
2018-08-17T08:54:30.811Z,7.07
2018-08-17T08:59:33.069Z,7.47
2018-08-17T09:04:35.252Z,7.27
2018-08-17T09:09:37.399Z,7.57
2018-08-17T09:14:40.037Z,8.00
2018-08-17T09:19:42.231Z,7.40
2018-08-17T09:24:44.381Z,7.50
2018-08-17T09:29:46.688Z,6.87
2018-08-17T09:34:48.995Z,7.00
2018-08-17T09:39:51.834Z,6.67
2018-08-17T09:44:54.149Z,6.37
2018-08-17T09:49:56.385Z,7.17
2018-08-17T09:54:58.600Z,6.87
2018-08-17T10:00:00.953Z,7.40
2018-08-17T10:05:09.018Z,7.27
2018-08-17T10:10:18.370Z,7.40
2018-08-17T10:15:21.882Z,7.30
2018-08-17T10:20:24.072Z,8.73
2018-08-17T10:25:26.347Z,8.37
2018-08-17T10:30:28.605Z,7.33
2018-08-17T10:35:35.106Z,7.70
2018-08-17T10:40:38.567Z,7.80
2018-08-17T10:45:46.084Z,7.77
2018-08-17T10:50:53.601Z,7.40
2018-08-17T10:56:00.205Z,7.60
2018-08-17T11:01:03.655Z,6.90
2018-08-17T11:06:06.265Z,6.70
2018-08-17T11:11:08.598Z,7.37
2018-08-17T11:16:10.665Z,7.10
2018-08-17T11:21:12.814Z,7.40
2018-08-17T11:26:15.341Z,8.17
2018-08-17T11:31:17.495Z,7.40
2018-08-17T11:36:21.990Z,8.13
2018-08-17T11:41:24.522Z,8.00
2018-08-17T11:46:26.673Z,7.60
2018-08-17T11:51:28.821Z,7.40
2018-08-17T11:56:30.958Z,7.40
2018-08-17T12:01:34.166Z,7.33
2018-08-17T12:06:36.342Z,7.10
2018-08-17T12:11:38.484Z,7.00
2018-08-17T12:16:40.669Z,8.10
2018-08-17T12:21:42.825Z,7.50
2018-08-17T12:26:50.929Z,8.97
2018-08-17T12:31:53.081Z,7.60
2018-08-17T12:36:55.237Z,7.70
2018-08-17T12:41:57.411Z,7.20
2018-08-17T12:46:59.569Z,7.20
2018-08-17T12:52:01.790Z,7.60
2018-08-17T12:57:04.865Z,7.50
2018-08-17T13:02:07.149Z,7.83
2018-08-17T13:07:09.329Z,7.40
2018-08-17T13:12:11.497Z,7.60
2018-08-17T13:17:13.698Z,7.20
2018-08-17T13:22:15.961Z,7.80
2018-08-17T13:27:19.088Z,8.00
2018-08-17T13:32:21.249Z,7.67
2018-08-17T13:37:23.395Z,8.00
2018-08-17T13:42:25.647Z,7.30
2018-08-17T13:47:27.841Z,6.87
2018-08-17T13:52:30.035Z,6.90
2018-08-17T13:57:32.201Z,6.17
2018-08-17T14:02:34.414Z,7.03
2018-08-17T14:07:36.647Z,7.07
2018-08-17T14:12:38.986Z,7.20
2018-08-17T14:17:41.186Z,7.53
2018-08-17T14:22:43.337Z,7.73
2018-08-17T14:27:45.501Z,7.03
2018-08-17T14:32:47.645Z,6.80
2018-08-17T14:37:49.790Z,8.30
2018-08-17T14:42:51.993Z,8.53
2018-08-17T14:47:55.661Z,8.20
2018-08-17T14:52:57.822Z,7.73
2018-08-17T14:58:00.017Z,7.37
2018-08-17T15:03:02.278Z,7.40
2018-08-17T15:08:04.594Z,7.10
2018-08-17T15:13:06.847Z,7.20
2018-08-17T15:18:09.645Z,6.87
2018-08-17T15:23:11.797Z,6.60
2018-08-17T15:28:14.054Z,5.83
2018-08-17T15:33:16.227Z,6.27
2018-08-17T15:38:18.401Z,6.20
2018-08-17T15:43:20.652Z,7.40
2018-08-17T15:48:22.849Z,7.63
2018-08-17T15:53:25.062Z,7.67
2018-08-17T15:58:27.222Z,7.70
2018-08-17T16:03:29.442Z,7.70
2018-08-17T16:08:31.619Z,8.40
2018-08-17T16:13:33.851Z,7.30
2018-08-17T16:18:36.013Z,6.73
2018-08-17T16:23:38.667Z,6.07
2018-08-17T16:28:40.829Z,6.47
2018-08-17T16:33:42.993Z,6.30
2018-08-17T16:38:45.214Z,7.00
2018-08-17T16:43:47.897Z,6.43
2018-08-17T16:48:50.137Z,6.17
2018-08-17T16:53:52.266Z,6.93
2018-08-17T16:58:54.452Z,6.63
2018-08-17T17:03:56.631Z,6.50
2018-08-17T17:09:00.336Z,7.50
2018-08-17T17:14:02.706Z,7.80
2018-08-17T17:19:10.034Z,7.90
2018-08-17T17:24:12.267Z,7.83
2018-08-17T17:29:14.437Z,7.73
2018-08-17T17:34:16.577Z,7.37
2018-08-17T17:39:18.734Z,8.60
2018-08-17T17:44:20.892Z,8.60
2018-08-17T17:49:23.176Z,9.20
2018-08-17T17:54:25.502Z,9.80
2018-08-17T17:59:27.674Z,9.50
2018-08-17T18:04:30.060Z,9.93
2018-08-17T18:09:32.218Z,11.27
2018-08-17T18:14:34.486Z,11.50
2018-08-17T18:19:36.653Z,19.50
2018-08-17T18:24:38.821Z,11.50
2018-08-17T18:29:41.022Z,11.60
2018-08-17T18:34:43.226Z,12.70
2018-08-17T18:39:45.467Z,11.73
2018-08-17T18:44:47.646Z,11.87
2018-08-17T18:49:49.792Z,11.00
2018-08-17T18:54:51.969Z,11.30
2018-08-17T18:59:54.098Z,11.43
2018-08-17T19:04:56.242Z,11.90
2018-08-17T19:09:58.399Z,18.17
2018-08-17T19:15:00.604Z,11.93
2018-08-17T19:20:03.601Z,11.40
2018-08-17T19:25:07.095Z,11.87
2018-08-17T19:30:21.617Z,12.67
2018-08-17T19:35:23.910Z,11.70
2018-08-17T19:40:26.096Z,11.77
2018-08-17T19:45:28.337Z,12.27
2018-08-17T19:50:30.590Z,12.10
2018-08-17T19:55:32.745Z,11.87
2018-08-17T20:00:35.021Z,11.80
2018-08-17T20:05:37.630Z,12.90
2018-08-17T20:10:39.789Z,13.67
2018-08-17T20:15:42.931Z,18.57
2018-08-17T20:20:45.821Z,13.43
2018-08-17T20:25:48.065Z,14.00
2018-08-17T20:30:50.285Z,14.50
2018-08-17T20:35:52.437Z,13.40
2018-08-17T20:40:57.385Z,13.07
2018-08-17T20:45:59.627Z,13.47
2018-08-17T20:51:06.902Z,13.13
2018-08-17T20:56:10.398Z,14.70
2018-08-17T21:01:14.321Z,13.50
2018-08-17T21:06:18.401Z,13.40
2018-08-17T21:11:20.584Z,15.17
2018-08-17T21:16:22.721Z,15.40
2018-08-17T21:21:24.937Z,16.10
2018-08-17T21:26:27.729Z,15.00
2018-08-17T21:31:32.886Z,15.03
2018-08-17T21:36:37.904Z,14.93
2018-08-17T21:41:44.879Z,15.47
2018-08-17T21:46:54.438Z,16.10
2018-08-17T21:52:01.214Z,15.00
2018-08-17T21:57:04.489Z,15.50
2018-08-17T22:02:09.936Z,14.67
2018-08-17T22:07:17.943Z,15.60
2018-08-17T22:12:21.331Z,15.70
2018-08-17T22:17:34.086Z,16.77
2018-08-17T22:22:36.917Z,14.77
2018-08-17T22:27:39.483Z,15.07
2018-08-17T22:32:42.699Z,15.33
2018-08-17T22:37:44.873Z,14.83
2018-08-17T22:42:47.805Z,15.60
2018-08-17T22:47:49.850Z,15.60
2018-08-17T22:52:52.013Z,15.90
2018-08-17T22:57:58.433Z,16.03
2018-08-17T23:03:03.539Z,14.93
2018-08-17T23:08:08.947Z,16.53
2018-08-17T23:13:11.357Z,17.30
2018-08-17T23:18:15.368Z,15.40
2018-08-17T23:23:20.831Z,16.00
2018-08-17T23:28:22.989Z,16.43
2018-08-17T23:33:25.209Z,16.20
2018-08-17T23:38:27.378Z,15.57
2018-08-17T23:43:29.533Z,15.50
2018-08-17T23:48:33.933Z,15.90
2018-08-17T23:53:36.187Z,17.50
2018-08-17T23:58:41.723Z,15.20
